Terminal Aerodrome Forecast
Issued by NWS Cleveland, OH

Home | Current Version | Previous Version | Graphics & Text | Print | Product List | Glossary On
Versions: 1 2 3 4 5 6 7 8 9 10 11 12 13 14 15 16 17
000
FTUS41 KCLE 161400 AAA
TAFMFD
TAF AMD
KMFD 161423Z 1614/1712 17014G20KT P6SM VCSH OVC025
     FM161700 17012KT P6SM VCSH BKN015 OVC025
      TEMPO 1618/1622 5SM -SHRA BKN008 OVC015
     FM170200 18010KT P6SM BKN006 OVC014
     FM170600 21008KT P6SM OVC010=

USA.gov is the U.S. government's official web portal to all federal, state and local government web resources and services.